createdAt,value
2023-02-12T00:00:15.781Z,-3.33
2023-02-12T00:03:13.936Z,-3.33
2023-02-12T00:05:43.753Z,-3.32
2023-02-12T00:08:17.032Z,-3.31
2023-02-12T00:10:48.467Z,-3.32
2023-02-12T00:16:20.518Z,-3.30
2023-02-12T00:19:01.546Z,-3.28
2023-02-12T00:24:33.257Z,-3.24
2023-02-12T00:27:02.725Z,-3.22
2023-02-12T00:29:35.382Z,-3.20
2023-02-12T00:32:14.577Z,-3.19
2023-02-12T00:34:46.869Z,-3.16
2023-02-12T00:37:22.874Z,-3.14
2023-02-12T00:39:51.350Z,-3.14
2023-02-12T00:42:29.515Z,-3.13
2023-02-12T00:44:59.481Z,-3.11
2023-02-12T00:47:29.777Z,-3.11
2023-02-12T00:49:58.544Z,-3.10
2023-02-12T00:52:27.663Z,-3.10
2023-02-12T00:54:57.874Z,-3.09
2023-02-12T00:57:27.195Z,-3.09
2023-02-12T01:02:55.414Z,-3.09
2023-02-12T01:05:29.604Z,-3.10
2023-02-12T01:08:00.141Z,-3.10
2023-02-12T01:10:31.700Z,-3.11
2023-02-12T01:13:15.117Z,-3.11
2023-02-12T01:15:48.967Z,-3.12
2023-02-12T01:18:49.124Z,-3.13
2023-02-12T01:21:56.443Z,-3.14
2023-02-12T01:24:25.688Z,-3.14
2023-02-12T01:26:55.363Z,-3.16
2023-02-12T01:29:24.864Z,-3.15
2023-02-12T01:31:53.596Z,-3.14
2023-02-12T01:34:23.576Z,-3.15
2023-02-12T01:36:52.940Z,-3.15
2023-02-12T01:39:23.055Z,-3.15
2023-02-12T01:42:06.309Z,-3.14
2023-02-12T01:44:37.214Z,-3.14
2023-02-12T01:47:07.171Z,-3.13
2023-02-12T01:49:43.423Z,-3.13
2023-02-12T01:52:33.173Z,-3.13
2023-02-12T01:55:35.279Z,-3.13
2023-02-12T01:58:06.534Z,-3.11
2023-02-12T02:00:38.093Z,-3.10
2023-02-12T02:03:07.620Z,-3.11
2023-02-12T02:05:49.078Z,-3.08
2023-02-12T02:08:18.880Z,-3.09
2023-02-12T02:10:48.601Z,-3.07
2023-02-12T02:13:51.733Z,-3.07
2023-02-12T02:16:30.564Z,-3.06
2023-02-12T02:19:12.105Z,-3.05
2023-02-12T02:22:20.032Z,-3.05
2023-02-12T02:25:37.789Z,-3.05
2023-02-12T02:29:05.315Z,-3.04
2023-02-12T02:32:03.593Z,-3.03
2023-02-12T02:34:51.911Z,-3.03
2023-02-12T02:37:29.597Z,-3.02
2023-02-12T02:40:14.894Z,-3.01
2023-02-12T02:42:52.237Z,-2.99
2023-02-12T02:45:20.986Z,-2.97
2023-02-12T02:48:00.525Z,-2.96
2023-02-12T02:50:32.255Z,-2.95
2023-02-12T02:53:04.275Z,-2.94
2023-02-12T02:55:41.450Z,-2.93
2023-02-12T02:58:15.203Z,-2.92
2023-02-12T03:00:57.390Z,-2.91
2023-02-12T03:04:01.357Z,-2.89
2023-02-12T03:06:58.154Z,-2.89
2023-02-12T03:09:37.449Z,-2.88
2023-02-12T03:12:12.942Z,-2.86
2023-02-12T03:14:57.881Z,-2.85
2023-02-12T03:17:35.548Z,-2.84
2023-02-12T03:20:13.299Z,-2.82
2023-02-12T03:22:48.960Z,-2.81
2023-02-12T03:25:25.112Z,-2.79
2023-02-12T03:28:04.993Z,-2.78
2023-02-12T03:30:51.724Z,-2.78
2023-02-12T03:33:42.198Z,-2.77
2023-02-12T03:36:29.439Z,-2.77
2023-02-12T03:39:05.622Z,-2.77
2023-02-12T03:41:55.485Z,-2.76
2023-02-12T03:44:53.243Z,-2.75
2023-02-12T03:47:34.247Z,-2.76
2023-02-12T03:50:11.826Z,-2.76
2023-02-12T03:52:40.691Z,-2.75
2023-02-12T03:55:09.338Z,-2.75
2023-02-12T03:57:43.123Z,-2.74
2023-02-12T04:00:19.326Z,-2.74
2023-02-12T04:02:49.110Z,-2.74
2023-02-12T04:05:24.326Z,-2.73
2023-02-12T04:07:55.739Z,-2.72
2023-02-12T04:10:34.732Z,-2.74
2023-02-12T04:13:16.582Z,-2.72
2023-02-12T04:16:15.583Z,-2.70
2023-02-12T04:18:46.852Z,-2.69
2023-02-12T04:21:43.783Z,-2.68
2023-02-12T04:24:20.214Z,-2.68
2023-02-12T04:27:04.138Z,-2.67
2023-02-12T04:29:50.686Z,-2.69
2023-02-12T04:32:41.460Z,-2.67
2023-02-12T04:35:24.444Z,-2.67
2023-02-12T04:37:59.475Z,-2.67
2023-02-12T04:40:28.512Z,-2.67
2023-02-12T04:42:57.065Z,-2.67
2023-02-12T04:45:31.450Z,-2.67
2023-02-12T04:48:00.965Z,-2.68
2023-02-12T04:50:39.711Z,-2.68
2023-02-12T04:53:08.980Z,-2.68
2023-02-12T04:55:37.805Z,-2.69
2023-02-12T04:58:07.276Z,-2.68
2023-02-12T05:00:35.965Z,-2.67
2023-02-12T05:03:05.162Z,-2.68
2023-02-12T05:05:33.589Z,-2.68
2023-02-12T05:08:01.715Z,-2.68
2023-02-12T05:10:29.832Z,-2.67
2023-02-12T05:12:58.659Z,-2.68
2023-02-12T05:15:27.294Z,-2.67
2023-02-12T05:17:55.518Z,-2.67
2023-02-12T05:20:23.752Z,-2.67
2023-02-12T05:22:54.155Z,-2.67
2023-02-12T05:25:23.019Z,-2.67
2023-02-12T05:27:51.272Z,-2.67
2023-02-12T05:30:19.790Z,-2.67
2023-02-12T05:32:50.165Z,-2.67
2023-02-12T05:35:20.713Z,-2.67
2023-02-12T05:37:48.984Z,-2.67
2023-02-12T05:40:17.473Z,-2.66
2023-02-12T05:42:45.755Z,-2.66
2023-02-12T05:45:14.229Z,-2.66
2023-02-12T05:47:42.524Z,-2.65
2023-02-12T05:50:11.155Z,-2.64
2023-02-12T05:52:39.455Z,-2.63
2023-02-12T05:55:08.332Z,-2.62
2023-02-12T05:57:36.523Z,-2.61
2023-02-12T06:00:07.117Z,-2.60
2023-02-12T06:02:40.357Z,-2.60
2023-02-12T06:05:08.959Z,-2.59
2023-02-12T06:07:44.749Z,-2.57
2023-02-12T06:10:13.268Z,-2.55
2023-02-12T06:12:41.544Z,-2.54
2023-02-12T06:15:10.773Z,-2.52
2023-02-12T06:17:38.982Z,-2.49
2023-02-12T06:20:08.289Z,-2.47
2023-02-12T06:22:38.430Z,-2.44
2023-02-12T06:25:07.102Z,-2.41
2023-02-12T06:27:35.450Z,-2.38
2023-02-12T06:30:04.010Z,-2.35
2023-02-12T06:32:32.530Z,-2.31
2023-02-12T06:35:00.655Z,-2.28
2023-02-12T06:37:28.889Z,-2.24
2023-02-12T06:39:57.083Z,-2.20
2023-02-12T06:42:25.244Z,-2.16
2023-02-12T06:44:53.531Z,-2.11
2023-02-12T06:47:21.808Z,-2.06
2023-02-12T06:49:50.057Z,-2.02
2023-02-12T06:52:18.150Z,-1.99
2023-02-12T06:54:46.283Z,-1.95
2023-02-12T06:57:14.713Z,-1.90
2023-02-12T06:59:42.922Z,-1.82
2023-02-12T07:02:17.001Z,-1.76
2023-02-12T07:04:45.349Z,-1.69
2023-02-12T07:07:14.304Z,-1.62
2023-02-12T07:09:42.449Z,-1.56
2023-02-12T07:12:10.837Z,-1.47
2023-02-12T07:14:39.329Z,-1.40
2023-02-12T07:17:08.818Z,-1.31
2023-02-12T07:19:45.435Z,-1.24
2023-02-12T07:22:13.511Z,-1.16
2023-02-12T07:24:41.946Z,-1.09
2023-02-12T07:27:10.096Z,-1.03
2023-02-12T07:29:38.295Z,-0.97
2023-02-12T07:32:06.847Z,-0.91
2023-02-12T07:34:34.997Z,-0.87
2023-02-12T07:37:03.227Z,-0.82
2023-02-12T07:39:31.512Z,-0.76
2023-02-12T07:41:59.774Z,-0.70
2023-02-12T07:44:28.013Z,-0.64
2023-02-12T07:46:56.485Z,-0.59
2023-02-12T07:49:24.707Z,-0.56
2023-02-12T07:51:52.971Z,-0.53
2023-02-12T07:54:21.325Z,-0.50
2023-02-12T07:56:52.002Z,-0.44
2023-02-12T07:59:20.800Z,-0.40
2023-02-12T08:01:51.307Z,-0.36
2023-02-12T08:04:30.250Z,-0.32
2023-02-12T08:06:58.576Z,-0.28
2023-02-12T08:09:30.981Z,-0.25
2023-02-12T08:11:59.693Z,-0.25
2023-02-12T08:14:28.113Z,-0.25
2023-02-12T08:16:56.447Z,-0.23
2023-02-12T08:19:26.597Z,-0.19
2023-02-12T08:22:02.784Z,-0.13
2023-02-12T08:24:31.552Z,-0.07
2023-02-12T08:26:59.713Z,0.01
2023-02-12T08:29:30.688Z,0.10
2023-02-12T08:32:03.848Z,0.21
2023-02-12T08:34:34.321Z,0.30
2023-02-12T08:37:05.897Z,0.38
2023-02-12T08:39:34.205Z,0.48
2023-02-12T08:42:02.838Z,0.57
2023-02-12T08:44:31.115Z,0.64
2023-02-12T08:46:59.394Z,0.71
2023-02-12T08:49:30.402Z,0.75
2023-02-12T08:52:00.307Z,0.75
2023-02-12T08:54:38.669Z,0.79
2023-02-12T08:57:06.820Z,0.88
2023-02-12T08:59:34.923Z,0.90
2023-02-12T09:02:04.702Z,0.94
2023-02-12T09:04:34.361Z,1.04
2023-02-12T09:07:02.517Z,1.14
2023-02-12T09:09:30.788Z,1.27
2023-02-12T09:11:58.840Z,1.38
2023-02-12T09:14:27.090Z,1.47
2023-02-12T09:16:57.364Z,1.57
2023-02-12T09:19:25.972Z,1.71
2023-02-12T09:21:56.603Z,1.85
2023-02-12T09:24:33.169Z,1.98
2023-02-12T09:27:01.388Z,2.09
2023-02-12T09:29:29.655Z,2.23
2023-02-12T09:31:57.888Z,2.33
2023-02-12T09:34:25.952Z,2.41
2023-02-12T09:36:55.152Z,2.51
2023-02-12T09:39:23.309Z,2.62
2023-02-12T09:42:25.454Z,2.83
2023-02-12T09:45:07.499Z,3.22
2023-02-12T09:48:00.056Z,3.50
2023-02-12T09:50:55.476Z,3.84
2023-02-12T09:53:28.065Z,4.16
2023-02-12T09:55:57.129Z,4.42
2023-02-12T09:58:34.295Z,4.74
2023-02-12T10:01:12.719Z,5.04
2023-02-12T10:03:42.561Z,5.30
2023-02-12T10:06:17.502Z,5.51
2023-02-12T10:09:10.492Z,5.71
2023-02-12T10:12:12.844Z,5.95
2023-02-12T10:14:56.246Z,6.11
2023-02-12T10:17:32.796Z,6.26
2023-02-12T10:20:25.883Z,6.44
2023-02-12T10:22:57.554Z,6.65
2023-02-12T10:25:55.630Z,6.71
2023-02-12T10:28:26.764Z,6.85
2023-02-12T10:31:00.723Z,6.99
2023-02-12T10:33:45.613Z,7.08
2023-02-12T10:36:31.241Z,7.18
2023-02-12T10:39:15.620Z,7.30
2023-02-12T10:41:55.567Z,7.39
2023-02-12T10:44:26.282Z,7.52
2023-02-12T10:46:55.329Z,7.59
2023-02-12T10:50:21.411Z,7.65
2023-02-12T10:52:55.214Z,7.75
2023-02-12T10:55:37.056Z,7.79
2023-02-12T10:58:22.247Z,7.86
2023-02-12T11:00:59.638Z,7.98
2023-02-12T11:03:37.441Z,8.03
2023-02-12T11:06:30.608Z,8.12
2023-02-12T11:08:59.790Z,8.24
2023-02-12T11:11:31.663Z,8.19
2023-02-12T11:14:12.904Z,8.24
2023-02-12T11:16:52.576Z,8.39
2023-02-12T11:19:32.486Z,8.57
2023-02-12T11:22:06.704Z,8.73
2023-02-12T11:24:37.278Z,8.92
2023-02-12T11:27:40.604Z,9.07
2023-02-12T11:30:12.545Z,9.19
2023-02-12T11:32:41.000Z,9.24
2023-02-12T11:35:40.350Z,9.29
2023-02-12T11:38:34.542Z,9.42
2023-02-12T11:41:28.660Z,9.59
2023-02-12T11:43:57.181Z,9.75
2023-02-12T11:46:28.226Z,9.90
2023-02-12T11:49:05.838Z,9.99
2023-02-12T11:51:34.198Z,9.91
2023-02-12T11:54:06.441Z,9.61
2023-02-12T11:56:50.101Z,9.50
2023-02-12T11:59:27.945Z,9.48
2023-02-12T12:02:07.363Z,9.50
2023-02-12T12:04:37.779Z,9.55
2023-02-12T12:07:22.762Z,9.61
2023-02-12T12:09:57.244Z,9.60
2023-02-12T12:12:48.775Z,9.64
2023-02-12T12:15:49.634Z,9.77
2023-02-12T12:19:00.654Z,9.91
2023-02-12T12:21:42.259Z,9.86
2023-02-12T12:24:25.196Z,9.78
2023-02-12T12:27:46.099Z,9.69
2023-02-12T12:30:29.852Z,9.69
2023-02-12T12:33:04.845Z,9.70
2023-02-12T12:35:45.881Z,9.60
2023-02-12T12:38:41.248Z,9.61
2023-02-12T12:41:21.441Z,9.60
2023-02-12T12:43:56.029Z,9.59
2023-02-12T12:47:02.951Z,9.55
2023-02-12T12:50:09.585Z,9.54
2023-02-12T12:53:00.655Z,9.57
2023-02-12T12:56:05.157Z,9.60
2023-02-12T12:58:44.606Z,9.64
2023-02-12T13:01:25.491Z,9.65
2023-02-12T13:04:28.045Z,9.59
2023-02-12T13:07:24.079Z,9.56
2023-02-12T13:10:26.184Z,9.61
2023-02-12T13:12:57.646Z,9.64
2023-02-12T13:15:35.250Z,9.67
2023-02-12T13:18:31.465Z,9.69
2023-02-12T13:21:18.451Z,9.66
2023-02-12T13:23:58.482Z,9.67
2023-02-12T13:26:48.654Z,9.67
2023-02-12T13:29:25.463Z,9.58
2023-02-12T13:32:17.943Z,9.43
2023-02-12T13:34:46.993Z,9.28
2023-02-12T13:37:20.254Z,9.15
2023-02-12T13:39:51.051Z,9.10
2023-02-12T13:42:51.256Z,9.04
2023-02-12T13:45:38.740Z,8.99
2023-02-12T13:48:32.124Z,8.95
2023-02-12T13:51:25.361Z,8.88
2023-02-12T13:54:06.908Z,8.84
2023-02-12T13:56:57.968Z,8.71
2023-02-12T13:59:32.520Z,8.62
2023-02-12T14:02:04.758Z,8.58
2023-02-12T14:04:37.801Z,8.53
2023-02-12T14:07:07.743Z,8.48
2023-02-12T14:10:01.434Z,8.41
2023-02-12T14:12:39.818Z,8.28
2023-02-12T14:15:11.517Z,8.17
2023-02-12T14:17:42.242Z,8.06
2023-02-12T14:20:27.679Z,7.89
2023-02-12T14:23:22.936Z,7.63
2023-02-12T14:26:13.630Z,7.40
2023-02-12T14:28:47.747Z,7.18
2023-02-12T14:31:19.961Z,6.87
2023-02-12T14:34:12.844Z,6.65
2023-02-12T14:36:44.060Z,6.50
2023-02-12T14:39:29.149Z,6.36
2023-02-12T14:42:06.328Z,6.27
2023-02-12T14:44:47.583Z,6.19
2023-02-12T14:47:35.837Z,6.11
2023-02-12T14:50:24.150Z,6.02
2023-02-12T14:52:59.688Z,5.90
2023-02-12T14:55:40.422Z,5.75
2023-02-12T14:58:19.902Z,5.58
2023-02-12T15:00:58.791Z,5.42
2023-02-12T15:03:52.862Z,5.23
2023-02-12T15:06:33.019Z,5.03
2023-02-12T15:09:22.324Z,4.84
2023-02-12T15:12:07.731Z,4.69
2023-02-12T15:14:46.334Z,4.53
2023-02-12T15:17:22.459Z,4.37
2023-02-12T15:20:06.252Z,4.22
2023-02-12T15:22:39.221Z,4.07
2023-02-12T15:25:32.009Z,3.92
2023-02-12T15:28:37.694Z,3.70
2023-02-12T15:31:10.809Z,3.45
2023-02-12T15:33:50.600Z,3.24
2023-02-12T15:36:22.401Z,3.07
2023-02-12T15:38:58.241Z,2.92
2023-02-12T15:41:33.823Z,2.77
2023-02-12T15:44:24.036Z,2.60
2023-02-12T15:46:56.503Z,2.41
2023-02-12T15:49:32.874Z,2.22
2023-02-12T15:52:16.699Z,2.04
2023-02-12T15:54:49.620Z,1.84
2023-02-12T15:57:24.109Z,1.66
2023-02-12T15:59:54.703Z,1.50
2023-02-12T16:02:30.576Z,1.33
2023-02-12T16:05:02.530Z,1.18
2023-02-12T16:07:35.689Z,1.04
2023-02-12T16:10:05.582Z,0.91
2023-02-12T16:12:37.748Z,0.77
2023-02-12T16:15:06.262Z,0.64
2023-02-12T16:17:37.217Z,0.52
2023-02-12T16:20:25.688Z,0.41
2023-02-12T16:22:55.174Z,0.29
2023-02-12T16:25:25.661Z,0.20
2023-02-12T16:28:02.787Z,0.11
2023-02-12T16:30:39.524Z,0.01
2023-02-12T16:33:39.411Z,-0.08
2023-02-12T16:36:12.114Z,-0.14
2023-02-12T16:38:40.232Z,-0.19
2023-02-12T16:41:27.766Z,-0.25
2023-02-12T16:44:10.039Z,-0.31
2023-02-12T16:46:48.395Z,-0.37
2023-02-12T16:49:26.215Z,-0.45
2023-02-12T16:52:35.428Z,-0.51
2023-02-12T16:55:08.796Z,-0.58
2023-02-12T16:57:37.172Z,-0.61
2023-02-12T17:00:08.997Z,-0.64
2023-02-12T17:02:37.530Z,-0.63
2023-02-12T17:05:08.276Z,-0.67
2023-02-12T17:07:45.464Z,-0.70
2023-02-12T17:10:15.200Z,-0.72
2023-02-12T17:12:49.599Z,-0.74
2023-02-12T17:15:29.277Z,-0.74
2023-02-12T17:17:57.902Z,-0.76
2023-02-12T17:20:26.913Z,-0.78
2023-02-12T17:22:58.486Z,-0.81
2023-02-12T17:25:26.928Z,-0.87
2023-02-12T17:27:55.221Z,-0.93
2023-02-12T17:30:26.586Z,-1.01
2023-02-12T17:32:55.459Z,-1.07
2023-02-12T17:35:23.831Z,-1.10
2023-02-12T17:37:53.058Z,-1.14
2023-02-12T17:40:29.736Z,-1.18
2023-02-12T17:42:59.539Z,-1.18
2023-02-12T17:45:27.937Z,-1.14
2023-02-12T17:47:56.174Z,-1.12
2023-02-12T17:50:25.534Z,-1.09
2023-02-12T17:52:54.536Z,-1.09
2023-02-12T17:55:23.162Z,-1.12
2023-02-12T17:57:54.622Z,-1.16
2023-02-12T18:00:24.059Z,-1.18
2023-02-12T18:02:52.555Z,-1.20
2023-02-12T18:05:21.467Z,-1.23
2023-02-12T18:07:49.941Z,-1.26
2023-02-12T18:10:18.383Z,-1.26
2023-02-12T18:12:46.630Z,-1.25
2023-02-12T18:15:15.068Z,-1.25
2023-02-12T18:17:43.520Z,-1.27
2023-02-12T18:20:12.412Z,-1.26
2023-02-12T18:22:40.596Z,-1.29
2023-02-12T18:25:08.911Z,-1.33
2023-02-12T18:27:39.799Z,-1.38
2023-02-12T18:30:11.320Z,-1.42
2023-02-12T18:32:47.481Z,-1.44
2023-02-12T18:35:16.047Z,-1.47
2023-02-12T18:37:44.447Z,-1.48
2023-02-12T18:40:12.852Z,-1.49
2023-02-12T18:42:41.162Z,-1.52
2023-02-12T18:45:09.944Z,-1.54
2023-02-12T18:47:38.282Z,-1.56
2023-02-12T18:50:07.302Z,-1.59
2023-02-12T18:52:37.465Z,-1.63
2023-02-12T18:55:07.243Z,-1.69
2023-02-12T18:57:35.642Z,-1.76
2023-02-12T19:00:05.055Z,-1.82
2023-02-12T19:02:43.574Z,-1.91
2023-02-12T19:05:12.776Z,-2.00
2023-02-12T19:07:41.138Z,-2.08
2023-02-12T19:10:09.700Z,-2.17
2023-02-12T19:12:38.267Z,-2.26
2023-02-12T19:15:08.931Z,-2.34
2023-02-12T19:17:37.140Z,-2.40
2023-02-12T19:20:05.944Z,-2.46
2023-02-12T19:22:34.287Z,-2.52
2023-02-12T19:25:03.479Z,-2.58
2023-02-12T19:27:32.001Z,-2.63
2023-02-12T19:30:01.748Z,-2.68
2023-02-12T19:32:38.852Z,-2.73
2023-02-12T19:35:07.212Z,-2.77
2023-02-12T19:37:35.623Z,-2.81
2023-02-12T19:40:04.123Z,-2.86
2023-02-12T19:42:33.958Z,-2.90
2023-02-12T19:45:02.255Z,-2.93
2023-02-12T19:47:30.469Z,-2.97
2023-02-12T19:49:58.726Z,-3.02
2023-02-12T19:52:27.101Z,-3.06
2023-02-12T19:54:55.375Z,-3.10
2023-02-12T19:57:23.765Z,-3.13
2023-02-12T19:59:52.273Z,-3.17
2023-02-12T20:02:21.318Z,-3.22
2023-02-12T20:04:49.698Z,-3.26
2023-02-12T20:07:17.971Z,-3.31
2023-02-12T20:09:46.378Z,-3.35
2023-02-12T20:12:14.611Z,-3.40
2023-02-12T20:14:42.811Z,-3.44
2023-02-12T20:17:11.038Z,-3.50
2023-02-12T20:19:39.315Z,-3.56
2023-02-12T20:22:07.693Z,-3.61
2023-02-12T20:24:36.375Z,-3.68
2023-02-12T20:27:13.353Z,-3.73
2023-02-12T20:29:41.743Z,-3.79
2023-02-12T20:32:11.263Z,-3.85
2023-02-12T20:34:50.137Z,-3.91
2023-02-12T20:37:26.770Z,-3.97
2023-02-12T20:39:54.916Z,-4.04
2023-02-12T20:42:23.170Z,-4.11
2023-02-12T20:44:51.310Z,-4.17
2023-02-12T20:47:19.801Z,-4.22
2023-02-12T20:49:52.870Z,-4.27
2023-02-12T20:52:21.765Z,-4.30
2023-02-12T20:54:50.357Z,-4.32
2023-02-12T20:57:18.768Z,-4.34
2023-02-12T20:59:50.077Z,-4.34
2023-02-12T21:02:18.784Z,-4.34
2023-02-12T21:04:46.997Z,-4.34
2023-02-12T21:07:15.437Z,-4.36
2023-02-12T21:09:43.747Z,-4.37
2023-02-12T21:12:12.122Z,-4.38
2023-02-12T21:14:40.428Z,-4.40
2023-02-12T21:17:08.715Z,-4.42
2023-02-12T21:19:37.176Z,-4.44
2023-02-12T21:22:05.980Z,-4.47
2023-02-12T21:24:35.537Z,-4.49
2023-02-12T21:27:03.987Z,-4.51
2023-02-12T21:29:33.374Z,-4.54
2023-02-12T21:32:12.060Z,-4.58
2023-02-12T21:34:40.428Z,-4.59
2023-02-12T21:37:08.751Z,-4.61
2023-02-12T21:39:37.141Z,-4.63
2023-02-12T21:42:05.518Z,-4.64
2023-02-12T21:44:37.791Z,-4.64
2023-02-12T21:47:07.434Z,-4.64
2023-02-12T21:49:35.560Z,-4.65
2023-02-12T21:52:06.824Z,-4.65
2023-02-12T21:54:42.527Z,-4.66
2023-02-12T21:57:11.712Z,-4.68
2023-02-12T21:59:39.982Z,-4.71
2023-02-12T22:02:09.835Z,-4.75
2023-02-12T22:04:37.964Z,-4.80
2023-02-12T22:07:06.003Z,-4.84
2023-02-12T22:09:34.387Z,-4.87
2023-02-12T22:12:02.620Z,-4.92
2023-02-12T22:14:30.835Z,-4.96
2023-02-12T22:16:59.156Z,-5.01
2023-02-12T22:19:27.751Z,-5.06
2023-02-12T22:21:56.006Z,-5.11
2023-02-12T22:24:24.374Z,-5.16
2023-02-12T22:26:54.881Z,-5.19
2023-02-12T22:29:23.998Z,-5.23
2023-02-12T22:31:52.480Z,-5.25
2023-02-12T22:34:20.893Z,-5.27
2023-02-12T22:36:49.154Z,-5.28
2023-02-12T22:39:18.519Z,-5.30
2023-02-12T22:41:46.896Z,-5.29
2023-02-12T22:44:16.507Z,-5.28
2023-02-12T22:46:45.112Z,-5.29
2023-02-12T22:49:13.695Z,-5.30
2023-02-12T22:51:42.411Z,-5.32
2023-02-12T22:54:17.148Z,-5.35
2023-02-12T22:56:50.597Z,-5.37
2023-02-12T22:59:18.927Z,-5.39
2023-02-12T23:01:47.206Z,-5.40
2023-02-12T23:04:17.799Z,-5.40
2023-02-12T23:06:46.955Z,-5.40
2023-02-12T23:09:19.118Z,-5.41
2023-02-12T23:11:48.490Z,-5.43
2023-02-12T23:14:17.070Z,-5.46
2023-02-12T23:16:46.058Z,-5.49
2023-02-12T23:19:16.186Z,-5.53
2023-02-12T23:21:49.707Z,-5.55
2023-02-12T23:24:17.729Z,-5.57
2023-02-12T23:26:45.980Z,-5.60
2023-02-12T23:29:14.200Z,-5.62
2023-02-12T23:31:42.524Z,-5.64
2023-02-12T23:34:10.833Z,-5.64
2023-02-12T23:36:38.946Z,-5.64
2023-02-12T23:39:07.462Z,-5.65
2023-02-12T23:41:35.842Z,-5.63
2023-02-12T23:44:05.044Z,-5.62
2023-02-12T23:46:33.387Z,-5.60
2023-02-12T23:49:04.913Z,-5.58
2023-02-12T23:51:33.265Z,-5.55
2023-02-12T23:54:01.817Z,-5.52
2023-02-12T23:56:30.134Z,-5.49
2023-02-12T23:58:58.207Z,-5.46
